Avila Beach, California
Current Conditions -  °F | °C
As of 4:56 AM on Tuesday 21 Oct 2014 (Local Time) from KSBP Reporting Station
Clear Clear  
Wind Chill: 61°   Ceiling: Unl
Heat Index: 61°   Visibility: 10mi
Dew Point: 50°   Wind: 15mph
Humidity: 67%   Direction: 320°NW
Pressure: 29.97"   Gusts: 18mph
Location:  35.18°N, 120.73°W
Report Text: KSBP 211156Z 32013G16KT 10SM CLR 16/10 A2997 RMK AO2 SLP146 T01610100 10178 20161 56010
Loading
Personal Weather Stations






























Interactive Weather Map
Tropical Storm Tracking
New forecast layout! Learn more

10-Day Weather Forecast

Advertisements
Track Severe Weather on mobile